createdAt,value
2022-10-15T00:00:50.407Z,14.0
2022-10-15T00:02:50.423Z,13.9
2022-10-15T00:04:50.875Z,13.9
2022-10-15T00:06:50.146Z,13.9
2022-10-15T00:08:50.119Z,13.9
2022-10-15T00:10:49.939Z,13.9
2022-10-15T00:12:51.090Z,13.9
2022-10-15T00:14:50.131Z,13.9
2022-10-15T00:16:50.322Z,13.9
2022-10-15T00:18:50.617Z,13.9
2022-10-15T00:20:50.494Z,13.9
2022-10-15T00:22:50.461Z,13.9
2022-10-15T00:24:50.340Z,13.9
2022-10-15T00:26:50.869Z,13.9
2022-10-15T00:28:51.151Z,13.9
2022-10-15T00:30:50.247Z,13.9
2022-10-15T00:32:50.589Z,13.9
2022-10-15T00:34:50.167Z,13.9
2022-10-15T00:36:50.627Z,13.9
2022-10-15T00:38:50.675Z,13.9
2022-10-15T00:40:50.520Z,13.9
2022-10-15T00:42:50.699Z,13.9
2022-10-15T00:44:50.918Z,13.9
2022-10-15T00:46:50.410Z,13.9
2022-10-15T00:48:50.602Z,13.9
2022-10-15T00:50:50.538Z,13.8
2022-10-15T00:52:50.374Z,13.8
2022-10-15T00:54:50.453Z,13.8
2022-10-15T00:56:50.772Z,13.9
2022-10-15T00:58:50.878Z,13.8
2022-10-15T01:00:50.974Z,13.9
2022-10-15T01:02:50.314Z,13.8
2022-10-15T01:04:50.902Z,13.8
2022-10-15T01:06:50.310Z,13.8
2022-10-15T01:08:50.240Z,13.8
2022-10-15T01:10:50.290Z,13.8
2022-10-15T01:12:50.083Z,13.8
2022-10-15T01:14:50.125Z,13.8
2022-10-15T01:16:50.437Z,13.8
2022-10-15T01:18:50.490Z,13.8
2022-10-15T01:20:50.764Z,13.8
2022-10-15T01:22:50.627Z,13.8
2022-10-15T01:24:50.762Z,13.8
2022-10-15T01:26:50.045Z,13.8
2022-10-15T01:28:50.593Z,13.8
2022-10-15T01:30:50.404Z,13.8
2022-10-15T01:32:50.425Z,13.8
2022-10-15T01:34:49.914Z,13.8
2022-10-15T01:36:50.161Z,13.8
2022-10-15T01:38:50.083Z,13.8
2022-10-15T01:40:50.046Z,13.8
2022-10-15T01:42:50.938Z,13.8
2022-10-15T01:44:50.008Z,13.8
2022-10-15T01:46:50.237Z,13.8
2022-10-15T01:48:50.160Z,13.8
2022-10-15T01:50:50.039Z,13.8
2022-10-15T01:52:50.117Z,13.8
2022-10-15T01:54:50.141Z,13.8
2022-10-15T01:56:50.437Z,13.8
2022-10-15T01:58:50.406Z,13.8
2022-10-15T02:00:50.415Z,13.8
2022-10-15T02:02:50.464Z,13.8
2022-10-15T02:04:50.135Z,13.8
2022-10-15T02:06:50.285Z,13.8
2022-10-15T02:08:50.728Z,13.8
2022-10-15T02:10:50.732Z,13.8
2022-10-15T02:12:50.725Z,13.8
2022-10-15T02:14:50.761Z,13.8
2022-10-15T02:16:50.074Z,13.8
2022-10-15T02:18:50.008Z,13.8
2022-10-15T02:20:49.955Z,13.8
2022-10-15T02:22:50.828Z,13.8
2022-10-15T02:24:56.129Z,13.8
2022-10-15T02:26:50.460Z,13.8
2022-10-15T02:28:50.816Z,13.8
2022-10-15T02:30:50.895Z,13.8
2022-10-15T02:32:50.160Z,13.8
2022-10-15T02:34:50.722Z,13.8
2022-10-15T02:36:50.138Z,13.8
2022-10-15T02:38:50.806Z,13.8
2022-10-15T02:40:50.856Z,13.8
2022-10-15T02:42:50.699Z,13.8
2022-10-15T02:44:50.768Z,13.8
2022-10-15T02:46:50.203Z,13.8
2022-10-15T02:48:50.426Z,13.8
2022-10-15T02:50:50.320Z,13.8
2022-10-15T02:52:50.233Z,13.8
2022-10-15T02:54:50.375Z,13.8
2022-10-15T02:56:50.830Z,13.8
2022-10-15T02:58:50.662Z,13.8
2022-10-15T03:00:50.882Z,13.8
2022-10-15T03:02:50.621Z,13.8
2022-10-15T03:04:50.606Z,13.8
2022-10-15T03:06:50.717Z,13.8
2022-10-15T03:08:50.416Z,13.8
2022-10-15T03:10:50.285Z,13.8
2022-10-15T03:12:50.198Z,13.8
2022-10-15T03:14:50.420Z,13.8
2022-10-15T03:16:50.823Z,13.8
2022-10-15T03:18:50.721Z,13.8
2022-10-15T03:20:50.671Z,13.8
2022-10-15T03:22:50.686Z,13.8
2022-10-15T03:24:50.441Z,13.8
2022-10-15T03:26:50.761Z,13.8
2022-10-15T03:28:50.936Z,13.8
2022-10-15T03:30:50.849Z,13.8
2022-10-15T03:32:50.037Z,13.8
2022-10-15T03:34:50.543Z,13.8
2022-10-15T03:36:50.881Z,13.8
2022-10-15T03:38:50.806Z,13.8
2022-10-15T03:40:50.066Z,13.8
2022-10-15T03:42:50.865Z,13.8
2022-10-15T03:44:50.856Z,13.8
2022-10-15T03:46:49.960Z,13.8
2022-10-15T03:48:50.957Z,13.8
2022-10-15T03:50:50.922Z,13.8
2022-10-15T03:52:49.926Z,13.8
2022-10-15T03:54:50.896Z,13.8
2022-10-15T03:56:49.987Z,13.8
2022-10-15T03:58:49.957Z,13.8
2022-10-15T04:00:50.809Z,13.8
2022-10-15T04:02:49.898Z,13.8
2022-10-15T04:04:50.378Z,13.8
2022-10-15T04:06:50.655Z,13.8
2022-10-15T04:10:50.820Z,13.8
2022-10-15T04:12:50.713Z,13.8
2022-10-15T04:14:50.893Z,13.8
2022-10-15T04:16:50.295Z,13.8
2022-10-15T04:18:50.412Z,13.8
2022-10-15T04:20:50.301Z,13.9
2022-10-15T04:22:50.319Z,13.9
2022-10-15T04:24:50.432Z,13.9
2022-10-15T04:26:50.652Z,13.9
2022-10-15T04:28:50.985Z,13.9
2022-10-15T04:30:50.016Z,13.9
2022-10-15T04:32:50.027Z,13.9
2022-10-15T04:34:50.567Z,13.9
2022-10-15T04:36:50.913Z,13.9
2022-10-15T04:38:50.932Z,13.9
2022-10-15T04:40:50.096Z,13.9
2022-10-15T04:42:50.922Z,13.9
2022-10-15T04:44:49.982Z,13.9
2022-10-15T04:46:50.083Z,13.9
2022-10-15T04:48:50.270Z,13.9
2022-10-15T04:50:50.193Z,13.9
2022-10-15T04:52:50.164Z,13.9
2022-10-15T04:54:49.997Z,13.9
2022-10-15T04:56:50.191Z,13.9
2022-10-15T04:58:49.999Z,13.9
2022-10-15T05:00:50.840Z,13.9
2022-10-15T05:02:50.696Z,13.9
2022-10-15T05:04:50.039Z,13.9
2022-10-15T05:06:50.287Z,13.9
2022-10-15T05:08:50.209Z,13.9
2022-10-15T05:10:49.975Z,13.9
2022-10-15T05:12:57.303Z,13.9
2022-10-15T05:14:50.292Z,13.9
2022-10-15T05:16:50.562Z,13.9
2022-10-15T05:18:50.341Z,13.9
2022-10-15T05:20:50.214Z,13.9
2022-10-15T05:22:50.051Z,13.9
2022-10-15T05:24:50.174Z,13.9
2022-10-15T05:26:50.554Z,13.9
2022-10-15T05:28:50.993Z,13.9
2022-10-15T05:30:50.867Z,13.9
2022-10-15T05:32:49.927Z,13.9
2022-10-15T05:34:50.433Z,13.9
2022-10-15T05:36:50.756Z,13.9
2022-10-15T05:38:50.655Z,13.9
2022-10-15T05:40:50.515Z,13.9
2022-10-15T05:42:50.676Z,13.9
2022-10-15T05:44:50.677Z,13.9
2022-10-15T05:46:50.921Z,13.9
2022-10-15T05:48:50.695Z,14.0
2022-10-15T05:50:50.702Z,14.0
2022-10-15T05:52:50.459Z,14.0
2022-10-15T05:54:50.300Z,14.0
2022-10-15T05:56:50.517Z,14.0
2022-10-15T05:58:50.619Z,14.0
2022-10-15T06:00:50.423Z,14.0
2022-10-15T06:02:51.072Z,14.0
2022-10-15T06:04:50.434Z,14.0
2022-10-15T06:06:50.640Z,14.0
2022-10-15T06:08:50.653Z,14.0
2022-10-15T06:10:50.388Z,14.0
2022-10-15T06:12:50.300Z,14.0
2022-10-15T06:14:50.247Z,14.0
2022-10-15T06:16:50.737Z,14.1
2022-10-15T06:18:50.484Z,14.1
2022-10-15T06:20:50.240Z,14.1
2022-10-15T06:22:49.988Z,14.1
2022-10-15T06:24:50.893Z,14.2
2022-10-15T06:26:50.114Z,14.2
2022-10-15T06:28:50.337Z,14.2
2022-10-15T06:30:50.445Z,14.2
2022-10-15T06:32:50.297Z,14.2
2022-10-15T06:34:50.781Z,14.2
2022-10-15T06:36:50.085Z,14.2
2022-10-15T06:38:50.085Z,14.2
2022-10-15T06:40:50.860Z,14.2
2022-10-15T06:42:50.892Z,14.2
2022-10-15T06:44:50.817Z,14.2
2022-10-15T06:46:50.118Z,14.3
2022-10-15T06:48:50.947Z,14.3
2022-10-15T06:50:50.793Z,14.3
2022-10-15T06:52:50.954Z,14.3
2022-10-15T06:54:50.014Z,14.4
2022-10-15T06:56:50.370Z,14.4
2022-10-15T06:58:50.359Z,14.4
2022-10-15T07:00:50.430Z,14.5
2022-10-15T07:02:50.136Z,14.6
2022-10-15T07:04:50.604Z,14.6
2022-10-15T07:06:50.843Z,14.6
2022-10-15T07:08:50.709Z,14.6
2022-10-15T07:10:50.716Z,14.6
2022-10-15T07:12:50.789Z,14.6
2022-10-15T07:14:50.648Z,14.6
2022-10-15T07:16:50.067Z,14.7
2022-10-15T07:18:50.731Z,14.7
2022-10-15T07:20:50.733Z,14.7
2022-10-15T07:22:50.596Z,14.7
2022-10-15T07:24:50.612Z,14.7
2022-10-15T07:26:49.964Z,14.8
2022-10-15T07:28:50.141Z,14.8
2022-10-15T07:30:50.004Z,14.8
2022-10-15T07:32:50.901Z,14.8
2022-10-15T07:34:50.318Z,14.9
2022-10-15T07:36:50.914Z,15.0
2022-10-15T07:38:50.649Z,15.0
2022-10-15T07:40:50.472Z,15.0
2022-10-15T07:42:50.315Z,15.0
2022-10-15T07:44:50.140Z,15.1
2022-10-15T07:46:50.415Z,15.2
2022-10-15T07:48:50.284Z,15.2
2022-10-15T07:50:50.237Z,15.2
2022-10-15T07:52:50.166Z,15.3
2022-10-15T07:54:50.061Z,15.3
2022-10-15T07:56:50.359Z,15.4
2022-10-15T07:58:50.381Z,15.4
2022-10-15T08:00:50.161Z,15.4
2022-10-15T08:02:50.078Z,15.5
2022-10-15T08:04:50.684Z,15.5
2022-10-15T08:06:50.867Z,15.6
2022-10-15T08:08:50.523Z,15.6
2022-10-15T08:10:50.667Z,15.6
2022-10-15T08:12:50.411Z,15.6
2022-10-15T08:14:50.538Z,15.7
2022-10-15T08:16:50.904Z,15.7
2022-10-15T08:18:53.930Z,15.7
2022-10-15T08:20:50.946Z,15.8
2022-10-15T08:22:50.698Z,15.8
2022-10-15T08:24:50.452Z,15.8
2022-10-15T08:26:50.914Z,15.8
2022-10-15T08:28:51.143Z,15.8
2022-10-15T08:30:50.314Z,15.9
2022-10-15T08:32:50.396Z,15.9
2022-10-15T08:34:50.095Z,16.0
2022-10-15T08:36:50.445Z,16.0
2022-10-15T08:38:50.365Z,16.0
2022-10-15T08:40:50.256Z,16.0
2022-10-15T08:42:50.090Z,16.0
2022-10-15T08:44:50.295Z,16.1
2022-10-15T08:46:50.379Z,16.1
2022-10-15T08:48:50.348Z,16.1
2022-10-15T08:50:54.441Z,16.2
2022-10-15T08:52:50.575Z,16.2
2022-10-15T08:54:50.399Z,16.2
2022-10-15T08:56:50.558Z,16.2
2022-10-15T08:58:50.369Z,16.2
2022-10-15T09:00:50.337Z,16.2
2022-10-15T09:02:50.444Z,16.3
2022-10-15T09:04:50.751Z,16.3
2022-10-15T09:06:50.006Z,16.3
2022-10-15T09:08:49.992Z,16.3
2022-10-15T09:10:50.786Z,16.4
2022-10-15T09:12:50.690Z,16.4
2022-10-15T09:14:50.643Z,16.5
2022-10-15T09:16:50.892Z,16.5
2022-10-15T09:18:50.871Z,16.6
2022-10-15T09:20:50.715Z,16.6
2022-10-15T09:22:50.648Z,16.6
2022-10-15T09:24:50.598Z,16.7
2022-10-15T09:26:49.993Z,16.7
2022-10-15T09:28:51.150Z,16.8
2022-10-15T09:30:50.191Z,16.8
2022-10-15T09:32:55.054Z,16.8
2022-10-15T09:34:50.430Z,16.8
2022-10-15T09:36:50.798Z,16.9
2022-10-15T09:38:50.916Z,17.0
2022-10-15T09:40:50.682Z,17.0
2022-10-15T09:42:50.667Z,17.1
2022-10-15T09:44:50.463Z,17.1
2022-10-15T09:46:50.724Z,17.2
2022-10-15T09:48:50.633Z,17.2
2022-10-15T09:50:50.428Z,17.2
2022-10-15T09:52:50.464Z,17.2
2022-10-15T09:54:50.400Z,17.2
2022-10-15T09:56:50.555Z,17.3
2022-10-15T09:58:50.334Z,17.3
2022-10-15T10:00:50.381Z,17.3
2022-10-15T10:02:50.396Z,17.3
2022-10-15T10:04:50.803Z,17.3
2022-10-15T10:06:50.062Z,17.3
2022-10-15T10:08:50.296Z,17.3
2022-10-15T10:10:50.190Z,17.3
2022-10-15T10:12:50.173Z,17.2
2022-10-15T10:14:50.039Z,17.2
2022-10-15T10:16:50.175Z,17.2
2022-10-15T10:18:49.964Z,17.2
2022-10-15T10:20:50.004Z,17.2
2022-10-15T10:22:52.299Z,17.2
2022-10-15T10:24:50.271Z,17.2
2022-10-15T10:26:50.667Z,17.3
2022-10-15T10:29:10.040Z,17.3
2022-10-15T10:30:50.250Z,17.3
2022-10-15T10:32:50.115Z,17.3
2022-10-15T10:34:53.357Z,17.4
2022-10-15T10:36:50.588Z,17.4
2022-10-15T10:38:50.517Z,17.4
2022-10-15T10:40:50.223Z,17.4
2022-10-15T10:42:50.178Z,17.4
2022-10-15T10:44:49.985Z,17.5
2022-10-15T10:46:50.439Z,17.5
2022-10-15T10:48:50.213Z,17.5
2022-10-15T10:50:50.336Z,17.6
2022-10-15T10:52:50.241Z,17.6
2022-10-15T10:54:50.259Z,17.6
2022-10-15T10:56:50.562Z,17.7
2022-10-15T10:58:50.665Z,17.8
2022-10-15T11:00:50.815Z,17.8
2022-10-15T11:02:50.003Z,17.8
2022-10-15T11:04:50.635Z,17.8
2022-10-15T11:06:50.008Z,17.8
2022-10-15T11:08:49.963Z,17.9
2022-10-15T11:10:49.938Z,17.9
2022-10-15T11:12:50.720Z,18.0
2022-10-15T11:14:50.859Z,18.0
2022-10-15T11:16:50.035Z,18.1
2022-10-15T11:18:49.926Z,18.1
2022-10-15T11:21:07.320Z,18.2
2022-10-15T11:22:50.193Z,18.2
2022-10-15T11:25:07.807Z,18.3
2022-10-15T11:27:19.589Z,18.3
2022-10-15T11:28:51.050Z,18.3
2022-10-15T11:30:50.221Z,18.4
2022-10-15T11:33:09.936Z,18.5
2022-10-15T11:34:50.648Z,18.5
2022-10-15T11:36:50.785Z,18.5
2022-10-15T11:38:50.642Z,18.5
2022-10-15T11:40:50.423Z,18.5
2022-10-15T11:42:50.649Z,18.5
2022-10-15T11:44:50.601Z,18.5
2022-10-15T11:46:50.780Z,18.5
2022-10-15T11:48:50.036Z,18.6
2022-10-15T11:50:49.992Z,18.6
2022-10-15T11:52:50.169Z,18.6
2022-10-15T11:54:50.841Z,18.5
2022-10-15T11:56:50.398Z,18.5
2022-10-15T11:58:50.491Z,18.5
2022-10-15T12:00:50.700Z,18.6
2022-10-15T12:02:50.569Z,18.6
2022-10-15T12:04:50.868Z,18.6
2022-10-15T12:06:50.167Z,18.6
2022-10-15T12:08:50.180Z,18.6
2022-10-15T12:10:50.287Z,18.5
2022-10-15T12:12:50.260Z,18.6
2022-10-15T12:14:50.431Z,18.5
2022-10-15T12:16:50.867Z,18.5
2022-10-15T12:18:50.908Z,18.4
2022-10-15T12:20:50.702Z,18.4
2022-10-15T12:22:50.739Z,18.4
2022-10-15T12:24:50.608Z,18.4
2022-10-15T12:26:50.086Z,18.4
2022-10-15T12:28:50.473Z,18.4
2022-10-15T12:30:50.718Z,18.4
2022-10-15T12:32:50.772Z,18.4
2022-10-15T12:34:50.099Z,18.4
2022-10-15T12:36:50.402Z,18.5
2022-10-15T12:38:50.363Z,18.6
2022-10-15T12:40:50.270Z,18.6
2022-10-15T12:42:50.352Z,18.6
2022-10-15T12:44:50.279Z,18.6
2022-10-15T12:46:50.444Z,18.6
2022-10-15T12:48:50.394Z,18.6
2022-10-15T12:50:50.254Z,18.6
2022-10-15T12:52:50.181Z,18.6
2022-10-15T12:54:50.103Z,18.6
2022-10-15T12:56:50.349Z,18.6
2022-10-15T12:58:50.290Z,18.6
2022-10-15T13:00:50.539Z,18.6
2022-10-15T13:02:50.631Z,18.8
2022-10-15T13:04:50.007Z,18.9
2022-10-15T13:06:50.234Z,18.9
2022-10-15T13:08:50.363Z,19.0
2022-10-15T13:10:50.372Z,19.0
2022-10-15T13:12:50.352Z,19.0
2022-10-15T13:14:50.487Z,19.1
2022-10-15T13:16:50.092Z,19.1
2022-10-15T13:18:50.038Z,19.1
2022-10-15T13:20:50.386Z,19.1
2022-10-15T13:24:50.259Z,19.1
2022-10-15T13:26:50.483Z,19.1
2022-10-15T13:28:50.627Z,19.1
2022-10-15T13:30:50.627Z,19.2
2022-10-15T13:32:50.608Z,19.2
2022-10-15T13:34:50.258Z,19.2
2022-10-15T13:36:50.753Z,19.2
2022-10-15T13:38:50.516Z,19.2
2022-10-15T13:40:50.325Z,19.2
2022-10-15T13:42:50.526Z,19.2
2022-10-15T13:44:50.467Z,19.1
2022-10-15T13:46:50.835Z,19.0
2022-10-15T13:48:50.907Z,19.0
2022-10-15T13:50:49.934Z,19.0
2022-10-15T13:52:49.944Z,19.0
2022-10-15T13:54:49.993Z,18.9
2022-10-15T13:56:50.879Z,18.9
2022-10-15T13:58:50.716Z,18.8
2022-10-15T14:00:51.128Z,18.8
2022-10-15T14:02:49.991Z,18.8
2022-10-15T14:04:50.553Z,18.8
2022-10-15T14:06:57.467Z,18.7
2022-10-15T14:08:50.570Z,18.7
2022-10-15T14:10:50.455Z,18.7
2022-10-15T14:12:50.552Z,18.7
2022-10-15T14:14:50.516Z,18.8
2022-10-15T14:16:50.854Z,18.8
2022-10-15T14:18:50.009Z,18.8
2022-10-15T14:20:50.031Z,18.7
2022-10-15T14:22:50.753Z,18.6
2022-10-15T14:24:50.713Z,18.6
2022-10-15T14:26:50.342Z,18.6
2022-10-15T14:28:50.434Z,18.6
2022-10-15T14:30:50.689Z,18.5
2022-10-15T14:32:50.462Z,18.5
2022-10-15T14:34:50.891Z,18.5
2022-10-15T14:36:49.983Z,18.5
2022-10-15T14:38:50.089Z,18.5
2022-10-15T14:40:49.956Z,18.6
2022-10-15T14:42:50.871Z,18.6
2022-10-15T14:44:50.260Z,18.6
2022-10-15T14:46:50.476Z,18.6
2022-10-15T14:48:50.594Z,18.7
2022-10-15T14:50:50.517Z,18.7
2022-10-15T14:52:50.633Z,18.6
2022-10-15T14:54:50.399Z,18.6
2022-10-15T14:56:50.859Z,18.6
2022-10-15T14:58:50.789Z,18.6
2022-10-15T15:00:50.921Z,18.6
2022-10-15T15:02:51.144Z,18.7
2022-10-15T15:04:50.799Z,18.7
2022-10-15T15:06:50.303Z,18.7
2022-10-15T15:08:50.068Z,18.7
2022-10-15T15:10:50.597Z,18.6
2022-10-15T15:12:50.529Z,18.7
2022-10-15T15:14:50.555Z,18.7
2022-10-15T15:16:50.903Z,18.7
2022-10-15T15:18:50.779Z,18.7
2022-10-15T15:20:50.715Z,18.6
2022-10-15T15:22:50.514Z,18.6
2022-10-15T15:24:50.603Z,18.6
2022-10-15T15:26:50.109Z,18.6
2022-10-15T15:28:50.787Z,18.6
2022-10-15T15:30:50.893Z,18.6
2022-10-15T15:32:50.014Z,18.6
2022-10-15T15:34:50.749Z,18.6
2022-10-15T15:36:50.233Z,18.5
2022-10-15T15:38:50.505Z,18.4
2022-10-15T15:40:50.776Z,18.4
2022-10-15T15:42:50.853Z,18.4
2022-10-15T15:44:50.765Z,18.4
2022-10-15T15:46:50.131Z,18.3
2022-10-15T15:48:50.795Z,18.3
2022-10-15T15:50:50.808Z,18.2
2022-10-15T15:52:50.591Z,18.2
2022-10-15T15:54:50.774Z,18.2
2022-10-15T15:56:50.138Z,18.1
2022-10-15T15:58:50.619Z,18.1
2022-10-15T16:00:51.049Z,18.1
2022-10-15T16:02:58.683Z,18.0
2022-10-15T16:04:50.178Z,18.0
2022-10-15T16:06:50.506Z,18.0
2022-10-15T16:08:50.396Z,17.9
2022-10-15T16:10:50.345Z,17.9
2022-10-15T16:12:50.407Z,17.9
2022-10-15T16:14:50.585Z,17.8
2022-10-15T16:16:50.026Z,17.8
2022-10-15T16:18:50.126Z,17.8
2022-10-15T16:20:49.913Z,17.8
2022-10-15T16:22:50.815Z,17.8
2022-10-15T16:24:50.580Z,17.7
2022-10-15T16:26:50.927Z,17.7
2022-10-15T16:28:50.939Z,17.6
2022-10-15T16:30:50.080Z,17.6
2022-10-15T16:32:50.036Z,17.6
2022-10-15T16:34:50.759Z,17.6
2022-10-15T16:36:50.261Z,17.6
2022-10-15T16:38:50.495Z,17.5
2022-10-15T16:40:50.190Z,17.5
2022-10-15T16:42:49.996Z,17.5
2022-10-15T16:44:50.006Z,17.4
2022-10-15T16:46:50.335Z,17.4
2022-10-15T16:48:50.157Z,17.4
2022-10-15T16:50:49.898Z,17.4
2022-10-15T16:52:50.906Z,17.4
2022-10-15T16:54:50.820Z,17.3
2022-10-15T16:56:53.218Z,17.3
2022-10-15T16:58:50.114Z,17.3
2022-10-15T17:00:50.285Z,17.3
2022-10-15T17:02:50.267Z,17.2
2022-10-15T17:04:50.886Z,17.2
2022-10-15T17:06:50.276Z,17.2
2022-10-15T17:08:50.144Z,17.2
2022-10-15T17:10:50.090Z,17.2
2022-10-15T17:12:50.098Z,17.2
2022-10-15T17:14:50.146Z,17.1
2022-10-15T17:16:50.276Z,17.1
2022-10-15T17:20:50.252Z,17.0
2022-10-15T17:22:50.529Z,17.0
2022-10-15T17:24:50.708Z,17.0
2022-10-15T17:26:50.227Z,17.0
2022-10-15T17:28:50.324Z,17.0
2022-10-15T17:30:50.355Z,17.0
2022-10-15T17:32:50.346Z,16.9
2022-10-15T17:34:50.872Z,16.9
2022-10-15T17:36:50.314Z,16.9
2022-10-15T17:38:50.415Z,16.9
2022-10-15T17:40:50.517Z,16.9
2022-10-15T17:42:50.545Z,16.9
2022-10-15T17:44:50.611Z,16.9
2022-10-15T17:46:50.050Z,16.8
2022-10-15T17:48:49.994Z,16.8
2022-10-15T17:50:50.030Z,16.8
2022-10-15T17:52:50.871Z,16.8
2022-10-15T17:54:50.017Z,16.8
2022-10-15T17:56:50.453Z,16.8
2022-10-15T17:58:50.400Z,16.8
2022-10-15T18:00:50.432Z,16.7
2022-10-15T18:02:50.556Z,16.8
2022-10-15T18:04:50.139Z,16.8
2022-10-15T18:06:50.899Z,16.7
2022-10-15T18:08:50.114Z,16.7
2022-10-15T18:10:49.943Z,16.7
2022-10-15T18:12:50.081Z,16.7
2022-10-15T18:14:50.958Z,16.7
2022-10-15T18:16:50.230Z,16.7
2022-10-15T18:18:50.075Z,16.6
2022-10-15T18:20:50.124Z,16.6
2022-10-15T18:22:49.942Z,16.6
2022-10-15T18:24:50.900Z,16.6
2022-10-15T18:26:49.966Z,16.6
2022-10-15T18:28:50.439Z,16.6
2022-10-15T18:30:50.379Z,16.6
2022-10-15T18:32:59.080Z,16.6
2022-10-15T18:34:50.812Z,16.6
2022-10-15T18:36:50.110Z,16.6
2022-10-15T18:38:49.947Z,16.6
2022-10-15T18:40:50.860Z,16.6
2022-10-15T18:42:50.829Z,16.5
2022-10-15T18:44:50.766Z,16.5
2022-10-15T18:46:49.972Z,16.5
2022-10-15T18:48:50.901Z,16.5
2022-10-15T18:50:50.743Z,16.5
2022-10-15T18:52:50.604Z,16.5
2022-10-15T18:54:50.408Z,16.5
2022-10-15T18:56:50.774Z,16.5
2022-10-15T18:58:50.614Z,16.5
2022-10-15T19:00:50.717Z,16.5
2022-10-15T19:02:50.535Z,16.5
2022-10-15T19:04:50.093Z,16.5
2022-10-15T19:06:50.415Z,16.4
2022-10-15T19:08:50.787Z,16.4
2022-10-15T19:10:50.699Z,16.4
2022-10-15T19:12:50.715Z,16.4
2022-10-15T19:14:50.561Z,16.4
2022-10-15T19:16:49.930Z,16.4
2022-10-15T19:18:50.758Z,16.4
2022-10-15T19:20:50.800Z,16.4
2022-10-15T19:22:50.554Z,16.4
2022-10-15T19:24:50.536Z,16.4
2022-10-15T19:26:50.854Z,16.4
2022-10-15T19:28:50.267Z,16.4
2022-10-15T19:30:50.242Z,16.4
2022-10-15T19:32:50.351Z,16.4
2022-10-15T19:34:50.073Z,16.4
2022-10-15T19:36:50.446Z,16.4
2022-10-15T19:38:50.396Z,16.4
2022-10-15T19:40:50.313Z,16.4
2022-10-15T19:42:50.194Z,16.4
2022-10-15T19:44:50.333Z,16.4
2022-10-15T19:46:50.646Z,16.4
2022-10-15T19:48:50.774Z,16.4
2022-10-15T19:50:50.620Z,16.4
2022-10-15T19:52:50.514Z,16.4
2022-10-15T19:54:50.682Z,16.3
2022-10-15T19:56:49.960Z,16.3
2022-10-15T19:58:50.907Z,16.3
2022-10-15T20:00:50.739Z,16.3
2022-10-15T20:02:50.746Z,16.3
2022-10-15T20:04:50.143Z,16.2
2022-10-15T20:06:50.553Z,16.2
2022-10-15T20:08:50.416Z,16.2
2022-10-15T20:10:50.510Z,16.2
2022-10-15T20:12:50.478Z,16.2
2022-10-15T20:14:50.677Z,16.2
2022-10-15T20:16:50.081Z,16.2
2022-10-15T20:18:50.092Z,16.2
2022-10-15T20:20:50.110Z,16.1
2022-10-15T20:22:50.165Z,16.1
2022-10-15T20:24:50.123Z,16.1
2022-10-15T20:26:50.553Z,16.1
2022-10-15T20:28:50.518Z,16.1
2022-10-15T20:30:50.799Z,16.0
2022-10-15T20:32:50.703Z,16.0
2022-10-15T20:34:50.279Z,16.0
2022-10-15T20:36:50.635Z,16.0
2022-10-15T20:38:50.799Z,16.0
2022-10-15T20:40:50.719Z,15.9
2022-10-15T20:42:50.631Z,15.9
2022-10-15T20:44:50.646Z,15.9
2022-10-15T20:46:50.040Z,15.9
2022-10-15T20:48:51.159Z,15.9
2022-10-15T20:50:50.392Z,15.9
2022-10-15T20:52:50.216Z,15.9
2022-10-15T20:54:50.222Z,15.9
2022-10-15T20:56:50.359Z,15.9
2022-10-15T20:58:50.313Z,15.8
2022-10-15T21:00:50.121Z,15.8
2022-10-15T21:02:50.236Z,15.8
2022-10-15T21:04:50.713Z,15.8
2022-10-15T21:06:49.972Z,15.8
2022-10-15T21:08:50.762Z,15.8
2022-10-15T21:10:50.904Z,15.8
2022-10-15T21:12:50.721Z,15.8
2022-10-15T21:14:50.812Z,15.8
2022-10-15T21:16:50.248Z,15.8
2022-10-15T21:18:50.504Z,15.8
2022-10-15T21:20:50.410Z,15.8
2022-10-15T21:22:50.323Z,15.8
2022-10-15T21:24:50.333Z,15.7
2022-10-15T21:26:50.631Z,15.7
2022-10-15T21:28:50.679Z,15.7
2022-10-15T21:30:50.721Z,15.6
2022-10-15T21:32:50.459Z,15.6
2022-10-15T21:34:49.912Z,15.6
2022-10-15T21:36:50.326Z,15.6
2022-10-15T21:38:50.203Z,15.6
2022-10-15T21:40:49.982Z,15.6
2022-10-15T21:42:50.905Z,15.6
2022-10-15T21:44:50.702Z,15.6
2022-10-15T21:46:50.006Z,15.6
2022-10-15T21:48:50.851Z,15.6
2022-10-15T21:50:50.795Z,15.6
2022-10-15T21:52:50.827Z,15.6
2022-10-15T21:54:50.003Z,15.6
2022-10-15T21:56:50.428Z,15.5
2022-10-15T21:58:50.383Z,15.5
2022-10-15T22:00:50.425Z,15.5
2022-10-15T22:02:50.307Z,15.4
2022-10-15T22:04:50.709Z,15.4
2022-10-15T22:06:50.245Z,15.4
2022-10-15T22:08:50.213Z,15.4
2022-10-15T22:10:50.093Z,15.4
2022-10-15T22:12:50.122Z,15.4
2022-10-15T22:14:49.961Z,15.4
2022-10-15T22:16:50.275Z,15.3
2022-10-15T22:18:50.216Z,15.3
2022-10-15T22:20:50.461Z,15.3
2022-10-15T22:22:50.373Z,15.3
2022-10-15T22:24:50.521Z,15.2
2022-10-15T22:26:50.549Z,15.2
2022-10-15T22:28:50.934Z,15.2
2022-10-15T22:30:50.031Z,15.2
2022-10-15T22:32:49.938Z,15.2
2022-10-15T22:34:50.458Z,15.2
2022-10-15T22:36:50.635Z,15.2
2022-10-15T22:38:50.783Z,15.2
2022-10-15T22:40:50.720Z,15.2
2022-10-15T22:42:50.682Z,15.2
2022-10-15T22:44:50.700Z,15.1
2022-10-15T22:46:50.864Z,15.1
2022-10-15T22:48:50.750Z,15.1
2022-10-15T22:50:50.807Z,15.1
2022-10-15T22:52:50.805Z,15.1
2022-10-15T22:54:50.865Z,15.1
2022-10-15T22:56:50.187Z,15.1
2022-10-15T22:58:50.196Z,15.2
2022-10-15T23:00:50.243Z,15.2
2022-10-15T23:02:50.412Z,15.2
2022-10-15T23:04:50.766Z,15.2
2022-10-15T23:06:50.232Z,15.2
2022-10-15T23:08:50.127Z,15.2
2022-10-15T23:10:50.248Z,15.2
2022-10-15T23:12:49.996Z,15.2
2022-10-15T23:14:50.119Z,15.2
2022-10-15T23:16:50.448Z,15.2
2022-10-15T23:18:50.296Z,15.2
2022-10-15T23:20:50.262Z,15.2
2022-10-15T23:22:50.156Z,15.2
2022-10-15T23:24:50.364Z,15.2
2022-10-15T23:26:50.627Z,15.2
2022-10-15T23:28:51.076Z,15.2
2022-10-15T23:30:49.949Z,15.2
2022-10-15T23:32:49.961Z,15.2
2022-10-15T23:34:50.566Z,15.2
2022-10-15T23:36:50.788Z,15.2
2022-10-15T23:38:50.623Z,15.2
2022-10-15T23:40:50.679Z,15.3
2022-10-15T23:42:50.579Z,15.2
2022-10-15T23:44:50.645Z,15.3
2022-10-15T23:46:50.831Z,15.3
2022-10-15T23:48:50.793Z,15.3
2022-10-15T23:50:50.768Z,15.3
2022-10-15T23:52:50.808Z,15.3
2022-10-15T23:54:50.640Z,15.3
2022-10-15T23:56:49.970Z,15.3
2022-10-15T23:58:49.982Z,15.3
